createdAt,value
2017-11-18T00:00:14.709Z,4.00
2017-11-18T00:01:16.765Z,4.10
2017-11-18T00:02:18.806Z,4.10
2017-11-18T00:03:20.134Z,4.10
2017-11-18T00:04:21.423Z,4.10
2017-11-18T00:05:23.014Z,4.10
2017-11-18T00:06:24.303Z,4.10
2017-11-18T00:07:25.588Z,4.10
2017-11-18T00:08:26.888Z,4.10
2017-11-18T00:09:28.201Z,4.10
2017-11-18T00:10:29.550Z,4.10
2017-11-18T00:11:30.870Z,4.20
2017-11-18T00:12:32.910Z,4.20
2017-11-18T00:13:34.209Z,4.20
2017-11-18T00:14:35.538Z,4.20
2017-11-18T00:15:37.259Z,4.20
2017-11-18T00:16:45.522Z,4.20
2017-11-18T00:17:46.845Z,4.20
2017-11-18T00:18:48.125Z,4.20
2017-11-18T00:19:50.173Z,4.20
2017-11-18T00:20:52.629Z,4.20
2017-11-18T00:21:53.925Z,4.20
2017-11-18T00:22:55.223Z,4.20
2017-11-18T00:23:57.266Z,4.20
2017-11-18T00:24:59.335Z,4.20
2017-11-18T00:26:01.791Z,4.20
2017-11-18T00:27:03.841Z,4.30
2017-11-18T00:28:05.138Z,4.30
2017-11-18T00:29:06.433Z,4.30
2017-11-18T00:30:08.461Z,4.30
2017-11-18T00:31:10.074Z,4.30
2017-11-18T00:32:11.368Z,4.30
2017-11-18T00:33:13.467Z,4.30
2017-11-18T00:34:14.764Z,4.30
2017-11-18T00:35:16.805Z,4.30
2017-11-18T00:36:19.124Z,4.30
2017-11-18T00:37:20.408Z,4.30
2017-11-18T00:38:22.445Z,4.30
2017-11-18T00:39:23.743Z,4.30
2017-11-18T00:40:25.042Z,4.30
2017-11-18T00:41:27.148Z,4.30
2017-11-18T00:42:28.440Z,4.30
2017-11-18T00:43:30.601Z,4.30
2017-11-18T00:44:31.909Z,4.30
2017-11-18T00:45:33.764Z,4.30
2017-11-18T00:46:35.389Z,4.20
2017-11-18T00:47:36.708Z,4.20
2017-11-18T00:48:38.002Z,4.10
2017-11-18T00:49:40.037Z,4.00
2017-11-18T00:50:42.069Z,4.00
2017-11-18T00:51:43.688Z,3.90
2017-11-18T00:52:44.975Z,3.90
2017-11-18T00:53:46.281Z,3.80
2017-11-18T00:54:47.560Z,3.80
2017-11-18T00:55:49.601Z,3.70
2017-11-18T00:56:50.922Z,3.70
2017-11-18T00:57:52.209Z,3.60
2017-11-18T00:58:53.496Z,3.60
2017-11-18T00:59:54.789Z,3.60
2017-11-18T01:00:56.085Z,3.60
2017-11-18T01:01:57.657Z,3.60
2017-11-18T01:02:58.946Z,3.60
2017-11-18T01:04:00.276Z,3.60
2017-11-18T01:05:01.592Z,3.70
2017-11-18T01:06:02.876Z,3.70
2017-11-18T01:07:04.483Z,3.70
2017-11-18T01:08:05.771Z,3.70
2017-11-18T01:09:07.812Z,3.80
2017-11-18T01:10:09.144Z,3.80
2017-11-18T01:11:10.447Z,3.80
2017-11-18T01:12:12.048Z,3.80
2017-11-18T01:13:14.094Z,3.90
2017-11-18T01:14:15.384Z,3.90
2017-11-18T01:15:16.681Z,3.90
2017-11-18T01:16:18.739Z,3.90
2017-11-18T01:17:20.812Z,4.00
2017-11-18T01:18:22.100Z,4.00
2017-11-18T01:19:24.221Z,4.00
2017-11-18T01:20:25.549Z,4.00
2017-11-18T01:21:26.868Z,4.00
2017-11-18T01:22:29.254Z,4.00
2017-11-18T01:23:30.565Z,4.00
2017-11-18T01:24:32.598Z,4.00
2017-11-18T01:25:33.872Z,4.00
2017-11-18T01:26:35.182Z,4.00
2017-11-18T01:27:37.252Z,4.00
2017-11-18T01:28:39.285Z,4.00
2017-11-18T01:29:40.594Z,4.00
2017-11-18T01:30:41.893Z,4.00
2017-11-18T01:31:43.217Z,4.00
2017-11-18T01:32:45.537Z,4.00
2017-11-18T01:33:47.477Z,4.00
2017-11-18T01:34:48.792Z,4.00
2017-11-18T01:35:50.123Z,4.00
2017-11-18T01:36:51.445Z,4.00
2017-11-18T01:37:53.784Z,4.10
2017-11-18T01:38:55.848Z,4.00
2017-11-18T01:39:58.565Z,4.10
2017-11-18T01:40:59.878Z,4.10
2017-11-18T01:42:01.194Z,4.00
2017-11-18T01:43:02.808Z,4.10
2017-11-18T01:44:04.152Z,4.10
2017-11-18T01:45:05.460Z,4.10
2017-11-18T01:46:07.593Z,4.10
2017-11-18T01:47:08.942Z,4.10
2017-11-18T01:48:10.532Z,4.10
2017-11-18T01:49:12.753Z,4.10
2017-11-18T01:50:14.113Z,4.10
2017-11-18T01:51:15.439Z,4.10
2017-11-18T01:52:16.750Z,4.10
2017-11-18T01:53:18.429Z,4.00
2017-11-18T01:54:19.745Z,4.00
2017-11-18T01:55:21.065Z,3.90
2017-11-18T01:56:23.129Z,3.80
2017-11-18T01:57:24.436Z,3.80
2017-11-18T01:58:26.059Z,3.70
2017-11-18T01:59:27.370Z,3.70
2017-11-18T02:00:28.694Z,3.70
2017-11-18T02:01:30.028Z,3.70
2017-11-18T02:02:42.361Z,3.70
2017-11-18T02:03:43.732Z,3.70
2017-11-18T02:04:45.018Z,3.70
2017-11-18T02:05:46.361Z,3.70
2017-11-18T02:06:47.700Z,3.70
2017-11-18T02:07:49.021Z,3.70
2017-11-18T02:08:50.614Z,3.80
2017-11-18T02:09:51.938Z,3.80
2017-11-18T02:10:53.257Z,3.80
2017-11-18T02:11:54.585Z,3.90
2017-11-18T02:12:55.901Z,3.90
2017-11-18T02:13:57.521Z,3.90
2017-11-18T02:14:58.843Z,3.90
2017-11-18T02:16:00.173Z,3.90
2017-11-18T02:17:02.226Z,3.90
2017-11-18T02:18:03.528Z,3.90
2017-11-18T02:19:05.122Z,3.90
2017-11-18T02:20:06.489Z,3.90
2017-11-18T02:21:08.553Z,3.80
2017-11-18T02:22:09.890Z,3.80
2017-11-18T02:23:11.969Z,3.80
2017-11-18T02:24:13.716Z,3.80
2017-11-18T02:25:15.051Z,3.80
2017-11-18T02:26:16.391Z,3.80
2017-11-18T02:27:17.742Z,3.80
2017-11-18T02:28:20.085Z,3.80
2017-11-18T02:29:21.961Z,3.80
2017-11-18T02:30:23.304Z,3.80
2017-11-18T02:31:24.640Z,3.80
2017-11-18T02:32:25.966Z,3.80
2017-11-18T02:33:27.316Z,3.80
2017-11-18T02:34:28.942Z,3.90
2017-11-18T02:35:30.276Z,3.90
2017-11-18T02:36:31.628Z,3.90
2017-11-18T02:37:32.976Z,3.90
2017-11-18T02:38:34.315Z,3.90
2017-11-18T02:39:35.977Z,3.90
2017-11-18T02:40:37.349Z,3.90
2017-11-18T02:41:39.433Z,3.90
2017-11-18T02:42:40.780Z,3.90
2017-11-18T02:43:42.158Z,3.90
2017-11-18T02:44:43.839Z,3.90
2017-11-18T02:45:45.926Z,3.90
2017-11-18T02:46:47.248Z,3.90
2017-11-18T02:47:48.629Z,3.90
2017-11-18T02:48:49.991Z,3.80
2017-11-18T02:49:51.624Z,3.80
2017-11-18T02:50:52.959Z,3.80
2017-11-18T02:51:54.282Z,3.80
2017-11-18T02:52:55.709Z,3.80
2017-11-18T02:53:57.068Z,3.80
2017-11-18T02:54:58.697Z,3.80
2017-11-18T02:56:00.036Z,3.90
2017-11-18T02:57:01.368Z,3.90
2017-11-18T02:58:02.709Z,3.90
2017-11-18T02:59:04.063Z,3.90
2017-11-18T03:00:06.509Z,3.90
2017-11-18T03:01:07.817Z,3.90
2017-11-18T03:02:09.177Z,3.90
2017-11-18T03:03:10.514Z,3.90
2017-11-18T03:04:11.815Z,3.90
2017-11-18T03:05:13.897Z,3.90
2017-11-18T03:06:15.221Z,3.90
2017-11-18T03:07:17.291Z,3.90
2017-11-18T03:08:18.671Z,3.90
2017-11-18T03:09:20.019Z,3.90
2017-11-18T03:10:21.946Z,3.90
2017-11-18T03:11:23.294Z,3.90
2017-11-18T03:12:24.610Z,3.90
2017-11-18T03:13:25.987Z,3.90
2017-11-18T03:14:27.309Z,4.00
2017-11-18T03:15:29.034Z,4.00
2017-11-18T03:16:30.378Z,4.00
2017-11-18T03:17:31.687Z,4.00
2017-11-18T03:18:33.013Z,4.00
2017-11-18T03:19:35.084Z,4.00
2017-11-18T03:20:36.706Z,4.00
2017-11-18T03:21:38.804Z,4.00
2017-11-18T03:22:40.133Z,4.00
2017-11-18T03:23:41.457Z,4.00
2017-11-18T03:24:43.539Z,4.00
2017-11-18T03:25:45.310Z,4.00
2017-11-18T03:26:46.644Z,4.00
2017-11-18T03:27:47.953Z,4.00
2017-11-18T03:28:49.247Z,4.00
2017-11-18T03:29:51.337Z,4.10
2017-11-18T03:30:52.930Z,4.00
2017-11-18T03:31:54.249Z,4.00
2017-11-18T03:32:55.565Z,4.00
2017-11-18T03:33:56.888Z,4.00
2017-11-18T03:34:58.944Z,4.00
2017-11-18T03:36:00.549Z,4.10
2017-11-18T03:37:01.874Z,4.10
2017-11-18T03:38:03.226Z,4.00
2017-11-18T03:39:04.549Z,4.00
2017-11-18T03:40:05.921Z,4.00
2017-11-18T03:41:07.832Z,4.00
2017-11-18T03:42:09.869Z,4.00
2017-11-18T03:43:11.206Z,4.00
2017-11-18T03:44:12.549Z,4.00
2017-11-18T03:45:13.873Z,4.10
2017-11-18T03:46:15.485Z,4.00
2017-11-18T03:47:16.812Z,4.10
2017-11-18T03:48:18.128Z,4.10
2017-11-18T03:49:20.189Z,4.10
2017-11-18T03:50:21.537Z,4.10
2017-11-18T03:51:23.146Z,4.10
2017-11-18T03:52:24.478Z,4.10
2017-11-18T03:53:25.805Z,4.10
2017-11-18T03:54:27.133Z,4.20
2017-11-18T03:55:29.210Z,4.20
2017-11-18T03:56:30.823Z,4.20
2017-11-18T03:57:32.879Z,4.20
2017-11-18T03:58:34.945Z,4.10
2017-11-18T03:59:37.021Z,4.10
2017-11-18T04:00:38.371Z,4.10
2017-11-18T04:01:39.972Z,4.10
2017-11-18T04:02:42.050Z,4.00
2017-11-18T04:03:43.406Z,4.00
2017-11-18T04:04:44.715Z,4.00
2017-11-18T04:05:46.804Z,4.00
2017-11-18T04:06:48.461Z,4.00
2017-11-18T04:07:49.757Z,4.00
2017-11-18T04:08:51.110Z,3.90
2017-11-18T04:09:52.480Z,3.90
2017-11-18T04:10:53.805Z,3.90
2017-11-18T04:11:55.208Z,3.90
2017-11-18T04:12:57.258Z,3.90
2017-11-18T04:13:59.324Z,3.90
2017-11-18T04:15:00.616Z,3.90
2017-11-18T04:16:01.953Z,3.90
2017-11-18T04:17:03.569Z,3.90
2017-11-18T04:18:04.901Z,3.90
2017-11-18T04:19:06.250Z,3.90
2017-11-18T04:20:07.609Z,3.90
2017-11-18T04:21:08.933Z,3.90
2017-11-18T04:22:10.568Z,3.90
2017-11-18T04:23:11.939Z,3.90
2017-11-18T04:24:13.261Z,3.90
2017-11-18T04:25:14.593Z,3.90
2017-11-18T04:26:15.913Z,4.00
2017-11-18T04:27:17.558Z,4.00
2017-11-18T04:28:18.877Z,4.00
2017-11-18T04:29:20.941Z,4.00
2017-11-18T04:30:22.270Z,4.00
2017-11-18T04:31:23.614Z,4.00
2017-11-18T04:32:25.380Z,4.00
2017-11-18T04:33:26.726Z,4.00
2017-11-18T04:34:28.052Z,4.00
2017-11-18T04:35:29.369Z,4.00
2017-11-18T04:36:31.447Z,4.00
2017-11-18T04:37:33.093Z,4.00
2017-11-18T04:38:34.413Z,4.00
2017-11-18T04:39:35.714Z,4.00
2017-11-18T04:40:37.032Z,4.00
2017-11-18T04:41:38.391Z,4.00
2017-11-18T04:42:39.757Z,4.00
2017-11-18T04:43:41.802Z,4.00
2017-11-18T04:44:43.960Z,4.10
2017-11-18T04:45:46.002Z,4.10
2017-11-18T04:46:47.319Z,4.00
2017-11-18T04:47:48.947Z,4.10
2017-11-18T04:48:50.274Z,4.00
2017-11-18T04:49:51.612Z,4.00
2017-11-18T04:50:52.900Z,4.00
2017-11-18T04:51:54.234Z,4.00
2017-11-18T04:52:55.868Z,4.00
2017-11-18T04:53:57.188Z,4.00
2017-11-18T04:54:58.517Z,4.00
2017-11-18T04:55:59.839Z,4.00
2017-11-18T04:57:01.177Z,4.00
2017-11-18T04:58:02.828Z,3.90
2017-11-18T04:59:04.186Z,3.90
2017-11-18T05:00:05.527Z,3.90
2017-11-18T05:01:06.865Z,3.90
2017-11-18T05:02:08.186Z,3.90
2017-11-18T05:03:10.144Z,3.90
2017-11-18T05:04:11.450Z,3.90
2017-11-18T05:05:13.500Z,4.00
2017-11-18T05:06:15.546Z,4.00
2017-11-18T05:07:17.606Z,4.00
2017-11-18T05:08:20.005Z,4.00
2017-11-18T05:09:21.341Z,4.00
2017-11-18T05:10:22.681Z,4.00
2017-11-18T05:11:24.006Z,4.00
2017-11-18T05:12:25.345Z,4.00
2017-11-18T05:13:27.004Z,4.00
2017-11-18T05:14:28.325Z,4.00
2017-11-18T05:15:29.634Z,4.10
2017-11-18T05:16:31.668Z,4.10
2017-11-18T05:17:33.024Z,4.10
2017-11-18T05:18:34.653Z,4.00
2017-11-18T05:19:35.970Z,4.10
2017-11-18T05:20:37.302Z,4.10
2017-11-18T05:21:38.648Z,4.00
2017-11-18T05:22:39.997Z,4.00
2017-11-18T05:23:41.611Z,4.00
2017-11-18T05:24:42.919Z,4.00
2017-11-18T05:25:44.968Z,3.90
2017-11-18T05:26:47.049Z,3.90
2017-11-18T05:27:48.353Z,3.90
2017-11-18T05:28:49.965Z,3.90
2017-11-18T05:29:51.284Z,3.90
2017-11-18T05:30:52.621Z,3.90
2017-11-18T05:31:53.946Z,3.90
2017-11-18T05:32:55.241Z,3.90
2017-11-18T05:33:56.600Z,3.90
2017-11-18T05:34:58.667Z,4.00
2017-11-18T05:36:00.004Z,4.00
2017-11-18T05:37:01.349Z,4.00
2017-11-18T05:38:02.674Z,3.90
2017-11-18T05:39:05.075Z,3.90
2017-11-18T05:40:06.419Z,3.90
2017-11-18T05:41:07.751Z,3.90
2017-11-18T05:42:09.063Z,3.90
2017-11-18T05:43:10.368Z,4.00
2017-11-18T05:44:12.711Z,4.00
2017-11-18T05:45:14.078Z,4.00
2017-11-18T05:46:16.144Z,3.90
2017-11-18T05:47:18.189Z,3.90
2017-11-18T05:48:20.261Z,3.90
2017-11-18T05:49:22.651Z,3.90
2017-11-18T05:50:23.957Z,3.90
2017-11-18T05:51:25.250Z,4.00
2017-11-18T05:52:26.544Z,4.00
2017-11-18T05:53:27.865Z,4.00
2017-11-18T05:54:30.190Z,4.00
2017-11-18T05:55:32.224Z,3.90
2017-11-18T05:56:33.557Z,4.00
2017-11-18T05:57:34.885Z,3.90
2017-11-18T05:58:36.194Z,3.90
2017-11-18T05:59:38.585Z,3.80
2017-11-18T06:00:39.932Z,3.80
2017-11-18T06:01:41.284Z,3.80
2017-11-18T06:02:42.633Z,3.80
2017-11-18T06:03:43.953Z,3.80
2017-11-18T06:04:45.565Z,3.80
2017-11-18T06:05:47.644Z,3.80
2017-11-18T06:06:48.939Z,3.70
2017-11-18T06:07:51.009Z,3.80
2017-11-18T06:08:53.048Z,3.80
2017-11-18T06:09:55.659Z,3.80
2017-11-18T06:10:56.965Z,3.80
2017-11-18T06:11:59.029Z,3.80
2017-11-18T06:13:00.321Z,3.80
2017-11-18T06:14:01.629Z,3.80
2017-11-18T06:15:03.281Z,3.80
2017-11-18T06:16:04.585Z,3.80
2017-11-18T06:17:05.873Z,3.80
2017-11-18T06:18:07.212Z,3.80
2017-11-18T06:19:08.528Z,3.80
2017-11-18T06:20:10.134Z,3.80
2017-11-18T06:21:12.164Z,3.80
2017-11-18T06:22:13.466Z,3.70
2017-11-18T06:23:14.789Z,3.70
2017-11-18T06:24:16.100Z,3.70
2017-11-18T06:25:18.434Z,3.70
2017-11-18T06:26:19.739Z,3.70
2017-11-18T06:27:21.054Z,3.70
2017-11-18T06:28:22.361Z,3.70
2017-11-18T06:29:23.669Z,3.70
2017-11-18T06:30:25.501Z,3.80
2017-11-18T06:31:26.810Z,3.80
2017-11-18T06:32:28.833Z,3.80
2017-11-18T06:33:30.125Z,3.80
2017-11-18T06:34:31.414Z,3.80
2017-11-18T06:35:33.006Z,3.80
2017-11-18T06:36:34.332Z,3.80
2017-11-18T06:37:35.653Z,3.80
2017-11-18T06:38:37.681Z,3.80
2017-11-18T06:39:38.998Z,3.80
2017-11-18T06:40:40.333Z,3.80
2017-11-18T06:41:41.626Z,3.80
2017-11-18T06:42:43.673Z,3.70
2017-11-18T06:43:45.722Z,3.70
2017-11-18T06:44:47.772Z,3.70
2017-11-18T06:45:49.391Z,3.70
2017-11-18T06:46:50.698Z,3.70
2017-11-18T06:47:51.985Z,3.60
2017-11-18T06:48:53.281Z,3.70
2017-11-18T06:49:54.585Z,3.70
2017-11-18T06:50:56.651Z,3.60
2017-11-18T06:51:57.963Z,3.60
2017-11-18T06:53:00.021Z,3.60
2017-11-18T06:54:02.051Z,3.50
2017-11-18T06:55:03.391Z,3.50
2017-11-18T06:56:04.989Z,3.60
2017-11-18T06:57:06.277Z,3.60
2017-11-18T06:58:07.562Z,3.60
2017-11-18T06:59:08.856Z,3.60
2017-11-18T07:00:10.165Z,3.60
2017-11-18T07:01:11.743Z,3.60
2017-11-18T07:02:13.031Z,3.70
2017-11-18T07:03:14.339Z,3.70
2017-11-18T07:04:15.648Z,3.70
2017-11-18T07:05:16.950Z,3.60
2017-11-18T07:06:18.490Z,3.70
2017-11-18T07:07:19.800Z,3.70
2017-11-18T07:08:21.102Z,3.70
2017-11-18T07:09:22.406Z,3.70
2017-11-18T07:10:23.684Z,3.70
2017-11-18T07:11:25.028Z,3.70
2017-11-18T07:12:27.060Z,3.70
2017-11-18T07:13:28.349Z,3.70
2017-11-18T07:14:29.646Z,3.80
2017-11-18T07:15:30.936Z,3.80
2017-11-18T07:16:32.297Z,3.90
2017-11-18T07:17:33.617Z,3.90
2017-11-18T07:18:34.950Z,4.00
2017-11-18T07:19:36.244Z,4.10
2017-11-18T07:20:38.264Z,4.20
2017-11-18T07:21:39.588Z,4.10
2017-11-18T07:22:40.885Z,4.20
2017-11-18T07:23:42.914Z,4.20
2017-11-18T07:24:44.206Z,4.20
2017-11-18T07:25:45.506Z,4.30
2017-11-18T07:26:47.569Z,4.30
2017-11-18T07:27:49.610Z,4.40
2017-11-18T07:28:50.913Z,4.30
2017-11-18T07:29:52.219Z,4.40
2017-11-18T07:30:53.521Z,4.40
2017-11-18T07:31:54.990Z,4.50
2017-11-18T07:32:56.292Z,4.50
2017-11-18T07:33:57.582Z,4.50
2017-11-18T07:34:58.905Z,4.50
2017-11-18T07:36:00.278Z,4.60
2017-11-18T07:37:01.875Z,4.70
2017-11-18T07:38:03.910Z,4.70
2017-11-18T07:39:05.986Z,4.70
2017-11-18T07:40:08.045Z,4.70
2017-11-18T07:41:10.083Z,4.70
2017-11-18T07:42:12.422Z,4.70
2017-11-18T07:43:13.728Z,4.70
2017-11-18T07:44:15.022Z,4.60
2017-11-18T07:45:17.065Z,4.60
2017-11-18T07:46:18.395Z,4.60
2017-11-18T07:47:19.984Z,4.60
2017-11-18T07:48:21.288Z,4.60
2017-11-18T07:49:22.601Z,4.60
2017-11-18T07:50:23.905Z,4.60
2017-11-18T07:51:25.226Z,4.60
2017-11-18T07:52:27.621Z,4.60
2017-11-18T07:53:28.905Z,4.60
2017-11-18T07:54:30.205Z,4.60
2017-11-18T07:55:32.251Z,4.70
2017-11-18T07:56:33.548Z,4.70
2017-11-18T07:57:35.891Z,4.70
2017-11-18T07:58:37.201Z,4.70
2017-11-18T07:59:38.482Z,4.80
2017-11-18T08:00:40.526Z,4.90
2017-11-18T08:01:41.825Z,4.90
2017-11-18T08:02:43.459Z,5.00
2017-11-18T08:03:44.761Z,5.00
2017-11-18T08:04:46.793Z,5.00
2017-11-18T08:05:48.105Z,5.00
2017-11-18T08:06:49.393Z,5.00
2017-11-18T08:07:51.460Z,4.90
2017-11-18T08:08:52.753Z,4.90
2017-11-18T08:09:54.058Z,4.90
2017-11-18T08:10:55.365Z,4.90
2017-11-18T08:11:57.406Z,4.90
2017-11-18T08:12:59.812Z,4.90
2017-11-18T08:14:01.115Z,4.90
2017-11-18T08:15:03.164Z,5.00
2017-11-18T08:16:05.194Z,5.00
2017-11-18T08:17:06.494Z,5.00
2017-11-18T08:18:07.847Z,5.00
2017-11-18T08:19:09.150Z,5.00
2017-11-18T08:20:12.035Z,5.00
2017-11-18T08:21:13.375Z,5.00
2017-11-18T08:22:14.685Z,5.00
2017-11-18T08:23:17.300Z,5.00
2017-11-18T08:24:18.610Z,5.00
2017-11-18T08:25:19.898Z,5.00
2017-11-18T08:26:21.207Z,5.00
2017-11-18T08:27:22.509Z,4.90
2017-11-18T08:28:24.587Z,5.00
2017-11-18T08:29:25.876Z,5.00
2017-11-18T08:30:27.181Z,5.00
2017-11-18T08:31:28.481Z,5.00
2017-11-18T08:32:29.801Z,5.00
2017-11-18T08:33:31.865Z,5.00
2017-11-18T08:34:33.890Z,5.00
2017-11-18T08:35:35.198Z,5.00
2017-11-18T08:36:37.475Z,5.00
2017-11-18T08:37:38.769Z,5.00
2017-11-18T08:38:41.104Z,5.00
2017-11-18T08:39:43.147Z,5.00
2017-11-18T08:40:44.466Z,5.00
2017-11-18T08:41:45.764Z,5.10
2017-11-18T08:42:47.065Z,5.10
2017-11-18T08:43:48.405Z,5.10
2017-11-18T08:44:49.705Z,5.20
2017-11-18T08:45:50.997Z,5.20
2017-11-18T08:46:52.377Z,5.20
2017-11-18T08:47:53.672Z,5.20
2017-11-18T08:48:55.728Z,5.10
2017-11-18T08:49:57.777Z,5.10
2017-11-18T08:50:59.804Z,5.10
2017-11-18T08:52:01.097Z,5.10
2017-11-18T08:53:02.411Z,5.10
2017-11-18T08:54:04.669Z,5.10
2017-11-18T08:55:06.746Z,5.10
2017-11-18T08:56:08.082Z,5.10
2017-11-18T08:57:09.416Z,5.10
2017-11-18T08:58:10.736Z,5.00
2017-11-18T08:59:12.849Z,5.10
2017-11-18T09:00:15.819Z,5.10
2017-11-18T09:01:17.138Z,5.10
2017-11-18T09:02:18.462Z,5.10
2017-11-18T09:03:19.810Z,5.10
2017-11-18T09:04:21.423Z,5.10
2017-11-18T09:05:23.484Z,5.00
2017-11-18T09:06:25.543Z,5.00
2017-11-18T09:07:27.576Z,5.00
2017-11-18T09:08:28.889Z,5.00
2017-11-18T09:09:30.221Z,5.10
2017-11-18T09:10:31.513Z,5.10
2017-11-18T09:11:33.545Z,5.20
2017-11-18T09:12:34.851Z,5.20
2017-11-18T09:13:36.145Z,5.30
2017-11-18T09:14:38.638Z,5.30
2017-11-18T09:15:39.931Z,5.20
2017-11-18T09:16:41.245Z,5.20
2017-11-18T09:17:42.549Z,5.20
2017-11-18T09:18:43.860Z,5.20
2017-11-18T09:19:45.948Z,5.20
2017-11-18T09:20:47.305Z,5.20
2017-11-18T09:21:48.597Z,5.10
2017-11-18T09:22:50.630Z,5.20
2017-11-18T09:23:52.667Z,5.10
2017-11-18T09:24:54.272Z,5.10
2017-11-18T09:25:55.564Z,5.20
2017-11-18T09:26:57.606Z,5.10
2017-11-18T09:27:58.901Z,5.10
2017-11-18T09:29:00.186Z,5.10
2017-11-18T09:30:01.772Z,5.10
2017-11-18T09:31:03.077Z,5.10
2017-11-18T09:32:05.126Z,5.10
2017-11-18T09:33:06.410Z,5.10
2017-11-18T09:34:07.707Z,5.20
2017-11-18T09:35:09.341Z,5.20
2017-11-18T09:36:10.639Z,5.20
2017-11-18T09:37:11.921Z,5.20
2017-11-18T09:38:13.238Z,5.30
2017-11-18T09:39:14.550Z,5.30
2017-11-18T09:40:16.138Z,5.30
2017-11-18T09:41:17.454Z,5.30
2017-11-18T09:42:18.751Z,5.30
2017-11-18T09:43:20.041Z,5.30
2017-11-18T09:44:21.334Z,5.20
2017-11-18T09:45:22.926Z,5.20
2017-11-18T09:46:24.230Z,5.10
2017-11-18T09:47:25.548Z,5.10
2017-11-18T09:48:26.833Z,5.00
2017-11-18T09:49:28.114Z,5.00
2017-11-18T09:50:29.471Z,5.00
2017-11-18T09:51:30.763Z,5.10
2017-11-18T09:52:32.806Z,5.00
2017-11-18T09:53:34.110Z,5.10
2017-11-18T09:54:35.434Z,5.10
2017-11-18T09:55:36.784Z,5.10
2017-11-18T09:56:38.085Z,5.10
2017-11-18T09:57:40.123Z,5.00
2017-11-18T09:58:41.425Z,5.00
2017-11-18T09:59:42.716Z,5.00
2017-11-18T10:00:44.826Z,5.10
2017-11-18T10:01:46.133Z,5.10
2017-11-18T10:02:47.418Z,5.10
2017-11-18T10:03:48.744Z,5.10
2017-11-18T10:04:50.078Z,5.10
2017-11-18T10:05:51.705Z,5.10
2017-11-18T10:06:53.770Z,5.10
2017-11-18T10:07:55.096Z,5.10
2017-11-18T10:08:56.389Z,5.10
2017-11-18T10:09:58.444Z,5.20
2017-11-18T10:11:00.789Z,5.20
2017-11-18T10:12:02.073Z,5.20
2017-11-18T10:13:03.414Z,5.20
2017-11-18T10:14:04.710Z,5.20
2017-11-18T10:15:05.995Z,5.30
2017-11-18T10:16:07.581Z,5.30
2017-11-18T10:17:08.871Z,5.20
2017-11-18T10:18:10.175Z,5.20
2017-11-18T10:19:12.205Z,5.20
2017-11-18T10:20:13.505Z,5.20
2017-11-18T10:21:14.845Z,5.20
2017-11-18T10:22:16.159Z,5.30
2017-11-18T10:23:18.207Z,5.30
2017-11-18T10:24:20.246Z,5.30
2017-11-18T10:25:21.527Z,5.30
2017-11-18T10:26:22.917Z,5.30
2017-11-18T10:27:24.223Z,5.40
2017-11-18T10:28:25.545Z,5.40
2017-11-18T10:29:26.865Z,5.50
2017-11-18T10:30:28.188Z,5.40
2017-11-18T10:31:30.292Z,5.40
2017-11-18T10:32:31.586Z,5.50
2017-11-18T10:33:33.618Z,5.50
2017-11-18T10:34:34.928Z,5.50
2017-11-18T10:35:36.251Z,5.50
2017-11-18T10:36:37.621Z,5.60
2017-11-18T10:37:38.934Z,5.60
2017-11-18T10:38:40.260Z,5.70
2017-11-18T10:39:41.553Z,5.70
2017-11-18T10:40:43.598Z,5.60
2017-11-18T10:41:45.207Z,5.60
2017-11-18T10:42:46.502Z,5.60
2017-11-18T10:43:48.583Z,5.50
2017-11-18T10:44:49.936Z,5.50
2017-11-18T10:45:51.248Z,5.50
2017-11-18T10:46:52.615Z,5.50
2017-11-18T10:47:53.980Z,5.40
2017-11-18T10:48:55.312Z,5.40
2017-11-18T10:49:56.654Z,5.40
2017-11-18T10:50:57.967Z,5.40
2017-11-18T10:51:59.352Z,5.40
2017-11-18T10:53:00.711Z,5.40
2017-11-18T10:54:02.061Z,5.40
2017-11-18T10:55:03.422Z,5.40
2017-11-18T10:56:04.749Z,5.40
2017-11-18T10:57:06.357Z,5.40
2017-11-18T10:58:08.420Z,5.40
2017-11-18T10:59:10.481Z,5.40
2017-11-18T11:00:12.574Z,5.40
2017-11-18T11:01:13.885Z,5.40
2017-11-18T11:02:16.225Z,5.40
2017-11-18T11:03:18.269Z,5.50
2017-11-18T11:04:19.591Z,5.50
2017-11-18T11:05:20.956Z,5.40
2017-11-18T11:06:23.003Z,5.50
2017-11-18T11:07:25.094Z,5.50
2017-11-18T11:08:26.402Z,5.50
2017-11-18T11:09:28.458Z,5.60
2017-11-18T11:10:29.818Z,5.60
2017-11-18T11:11:31.132Z,5.60
2017-11-18T11:12:33.506Z,5.60
2017-11-18T11:13:35.577Z,5.60
2017-11-18T11:14:36.915Z,5.60
2017-11-18T11:15:38.350Z,5.60
2017-11-18T11:16:39.772Z,5.60
2017-11-18T11:17:41.946Z,5.60
2017-11-18T11:18:43.414Z,5.60
2017-11-18T11:19:44.794Z,5.60
2017-11-18T11:20:46.270Z,5.60
2017-11-18T11:21:47.684Z,5.60
2017-11-18T11:22:49.095Z,5.60
2017-11-18T11:23:50.499Z,5.60
2017-11-18T11:24:51.893Z,5.60
2017-11-18T11:25:53.250Z,5.60
2017-11-18T11:26:55.375Z,5.60
2017-11-18T11:27:57.128Z,5.60
2017-11-18T11:28:58.529Z,5.60
2017-11-18T11:29:59.946Z,5.60
2017-11-18T11:31:01.371Z,5.60
2017-11-18T11:32:02.806Z,5.50
2017-11-18T11:33:05.253Z,5.60
2017-11-18T11:34:06.756Z,5.50
2017-11-18T11:35:08.236Z,5.50
2017-11-18T11:36:10.466Z,5.50
2017-11-18T11:37:11.869Z,5.40
2017-11-18T11:38:14.344Z,5.40
2017-11-18T11:39:15.792Z,5.40
2017-11-18T11:40:17.218Z,5.40
2017-11-18T11:41:18.750Z,5.40
2017-11-18T11:42:20.914Z,5.40
2017-11-18T11:43:23.178Z,5.30
2017-11-18T11:44:24.597Z,5.40
2017-11-18T11:45:26.028Z,5.30
2017-11-18T11:46:27.450Z,5.30
2017-11-18T11:47:28.961Z,5.30
2017-11-18T11:48:32.144Z,5.30
2017-11-18T11:49:33.626Z,5.20
2017-11-18T11:50:35.695Z,5.30
2017-11-18T11:51:37.061Z,5.20
2017-11-18T11:52:38.483Z,5.20
2017-11-18T11:53:39.895Z,5.20
2017-11-18T11:54:41.333Z,5.20
2017-11-18T11:55:42.907Z,5.20
2017-11-18T11:56:44.360Z,5.20
2017-11-18T11:57:45.965Z,5.30
2017-11-18T11:58:47.644Z,5.30
2017-11-18T11:59:49.942Z,5.30
2017-11-18T12:00:51.415Z,5.40
2017-11-18T12:01:53.571Z,5.40
2017-11-18T12:02:55.672Z,5.40
2017-11-18T12:03:57.816Z,5.40
2017-11-18T12:04:59.885Z,5.50
2017-11-18T12:06:01.972Z,5.50
2017-11-18T12:07:03.319Z,5.50
2017-11-18T12:08:04.667Z,5.60
2017-11-18T12:09:06.299Z,5.60
2017-11-18T12:10:07.634Z,5.70
2017-11-18T12:11:08.983Z,5.70
2017-11-18T12:12:10.303Z,5.80
2017-11-18T12:13:11.625Z,5.80
2017-11-18T12:14:13.167Z,5.80
2017-11-18T12:15:14.493Z,5.90
2017-11-18T12:16:16.552Z,5.90
2017-11-18T12:17:18.638Z,5.90
2017-11-18T12:18:19.953Z,5.90
2017-11-18T12:19:21.581Z,5.90
2017-11-18T12:20:23.654Z,5.80
2017-11-18T12:21:25.731Z,5.80
2017-11-18T12:22:27.055Z,5.80
2017-11-18T12:23:28.382Z,5.80
2017-11-18T12:24:30.494Z,5.70
2017-11-18T12:25:31.810Z,5.70
2017-11-18T12:26:33.146Z,5.80
2017-11-18T12:27:34.475Z,5.80
2017-11-18T12:28:35.790Z,5.80
2017-11-18T12:29:37.926Z,5.90
2017-11-18T12:30:39.240Z,5.90
2017-11-18T12:31:40.563Z,5.90
2017-11-18T12:32:41.957Z,5.90
2017-11-18T12:33:44.025Z,6.00
2017-11-18T12:34:45.403Z,6.00
2017-11-18T12:35:46.741Z,6.00
2017-11-18T12:36:48.085Z,6.00
2017-11-18T12:37:49.414Z,6.10
2017-11-18T12:38:50.772Z,6.00
2017-11-18T12:39:52.123Z,6.00
2017-11-18T12:40:53.529Z,6.00
2017-11-18T12:41:54.860Z,6.00
2017-11-18T12:42:56.190Z,6.00
2017-11-18T12:43:57.509Z,6.00
2017-11-18T12:44:59.102Z,6.00
2017-11-18T12:46:00.473Z,6.00
2017-11-18T12:47:02.550Z,5.90
2017-11-18T12:48:03.854Z,5.90
2017-11-18T12:49:05.224Z,6.00
2017-11-18T12:50:06.596Z,5.90
2017-11-18T12:51:07.921Z,5.80
2017-11-18T12:52:09.236Z,5.90
2017-11-18T12:53:10.539Z,5.90
2017-11-18T12:54:11.869Z,5.90
2017-11-18T12:55:13.494Z,6.00
2017-11-18T12:56:14.833Z,5.90
2017-11-18T12:57:16.151Z,6.00
2017-11-18T12:58:17.452Z,6.00
2017-11-18T12:59:19.513Z,6.00
2017-11-18T13:00:21.625Z,6.10
2017-11-18T13:01:22.946Z,6.10
2017-11-18T13:02:24.263Z,6.10
2017-11-18T13:03:25.615Z,6.10
2017-11-18T13:04:26.926Z,6.20
2017-11-18T13:05:29.264Z,6.20
2017-11-18T13:06:30.602Z,6.20
2017-11-18T13:07:31.925Z,6.20
2017-11-18T13:08:33.209Z,6.20
2017-11-18T13:09:34.492Z,6.20
2017-11-18T13:10:36.089Z,6.10
2017-11-18T13:11:37.413Z,6.20
2017-11-18T13:12:39.453Z,6.20
2017-11-18T13:13:40.742Z,6.20
2017-11-18T13:14:42.028Z,6.20
2017-11-18T13:15:43.605Z,6.20
2017-11-18T13:16:44.893Z,6.20
2017-11-18T13:17:46.229Z,6.20
2017-11-18T13:18:47.521Z,6.20
2017-11-18T13:19:48.817Z,6.20
2017-11-18T13:20:50.145Z,6.20
2017-11-18T13:21:51.447Z,6.30
2017-11-18T13:22:52.753Z,6.30
2017-11-18T13:23:54.789Z,6.30
2017-11-18T13:24:56.108Z,6.30
2017-11-18T13:25:57.525Z,6.20
2017-11-18T13:26:58.846Z,6.20
2017-11-18T13:28:00.166Z,6.20
2017-11-18T13:29:02.218Z,6.20
2017-11-18T13:30:04.291Z,6.20
2017-11-18T13:31:05.890Z,6.20
2017-11-18T13:32:07.220Z,6.20
2017-11-18T13:33:08.568Z,6.20
2017-11-18T13:34:09.889Z,6.10
2017-11-18T13:35:11.213Z,6.10
2017-11-18T13:36:12.593Z,6.10
2017-11-18T13:37:13.927Z,6.10
2017-11-18T13:38:15.274Z,6.20
2017-11-18T13:39:17.347Z,6.10